Terminal Aerodrome Forecast
Issued by NWS Green Bay, WI

Home | Current Version | Previous Version | Text Only | Print | Product List | Glossary On
Versions: 1 2 3 4 5 6 7 8 9 10 11 12 13 14 15 16 17 18 19 20 21 22 23 24 25 26 27 28 29 30 31 32 33
000
FTUS43 KGRB 200500
TAFGRB
TAF
KGRB 200520Z 2006/2106 18010KT P6SM SCT060 OVC080 WS012/21040KT
     FM200900 19009KT P6SM BKN040 OVC070 WS014/22030KT
      TEMPO 2009/2012 -SHRA
     FM201200 19009KT P6SM BKN040 OVC070
      TEMPO 2012/2015 6SM -SHRA BR
     FM201500 21008KT 6SM HZ BKN035 BKN080
     FM210000 12005KT 5SM BR SCT025 OVC050 PROB30 2100/2106 -SHRA
      BKN025=

USA.gov is the U.S. government's official web portal to all federal, state and local government web resources and services.